Queen Isabella — A8IE2 — position and weather

sailwx.info

Track history (hours):
 
Tides and Currents Weather Stations Pressure Air Temp Water Temp Dewpoint Dewpoint Depression Visibility Wind Speed Wind Dir Waves Ship Positions

Queen Isabella

Last reported at 2015-May-29 23:25 UTC. Time now 2015-May-30 04:34 UTC.
Position N 36°06' W 001°51'.

Length 131 m; draft 6.3 m.

Type: Ship. MMSI: 636090959.

Date/timePositionNaut miles runAvg speedWind from/ knotsBaromVisibWave heightAir tempDewpointWater temp
2015-May-29 23:25N 36°06' W 001°51'1211.4
2015-May-29 22:20N 36°05' W 002°06'1111.0
2015-May-29 21:19N 36°04' W 002°20'911.1
2015-May-29 20:31N 36°04' W 002°31'13111.5
2015-May-29 09:05N 36°03' W 005°13'712.3
2015-May-29 08:33N 36°04' W 005°21'4 3.7
2015-May-29 07:33N 36°06' W 005°25'0 0.0
2015-May-29 06:32N 36°06' W 005°25'0 0.0
2015-May-29 05:29N 36°06' W 005°25'0 0.0
2015-May-29 04:29N 36°06' W 005°25'0 0.0
2015-May-29 03:14N 36°06' W 005°25'0 0.1
2015-May-29 02:32N 36°06' W 005°25'8 8.0
2015-May-29 01:34N 36°05' W 005°16'3 2.7
2015-May-29 00:34N 36°03' W 005°18'1111.3
2015-May-28 23:34N 35°57' W 005°30'15510.8
2015-May-28 09:13N 36°22' W 008°39'810.9
2015-May-28 08:27N 36°24' W 008°49'1011.0
2015-May-28 07:31N 36°26' W 009°01'1111.4
2015-May-28 06:31N 36°29' W 009°15'1111.1
2015-May-28 05:33N 36°35' W 009°26'1211.8
2015-May-28 04:33N 36°44' W 009°36'1212.0
2015-May-28 03:33N 36°55' W 009°40'1212.2
2015-May-28 02:33N 37°07' W 009°39'1211.7
2015-May-28 01:33N 37°19' W 009°37'1211.8
2015-May-28 00:33N 37°30' W 009°34'1211.8
2015-May-27 23:33N 37°42' W 009°32'1211.5
2015-May-27 22:33N 37°54' W 009°31'1211.9
2015-May-27 21:33N 38°05' W 009°30'1212.0
2015-May-27 20:33N 38°17' W 009°28'1212.0
2015-May-27 19:33N 38°29' W 009°26'10 9.6
2015-May-27 18:33N 38°38' W 009°21'1111.1
2015-May-27 17:34N 38°41' W 009°08'3 2.8
2015-May-27 16:25N 38°41' W 009°04'0 0.0
2015-May-27 15:31N 38°41' W 009°04'0 0.0
2015-May-27 14:31N 38°41' W 009°04'0 0.0
2015-May-27 13:28N 38°41' W 009°04'0 0.0
2015-May-27 12:31N 38°41' W 009°04'0 0.0
2015-May-27 11:25N 38°41' W 009°04'0 0.0
2015-May-27 10:31N 38°41' W 009°04'0 0.0
2015-May-27 09:31N 38°41' W 009°04'0 0.0
2015-May-27 08:31N 38°41' W 009°04'0 0.0
2015-May-27 07:31N 38°41' W 009°04'0 0.0
2015-May-27 06:31N 38°41' W 009°04'0 0.0
2015-May-27 05:31N 38°41' W 009°04'0 0.0
2015-May-27 04:31N 38°41' W 009°04'0 0.0
2015-May-27 03:31N 38°41' W 009°04'0 0.0
2015-May-27 02:31N 38°41' W 009°04'0 0.0
2015-May-27 01:31N 38°41' W 009°04'0 0.0
2015-May-27 00:31N 38°41' W 009°04'0 0.0
2015-May-26 23:31N 38°41' W 009°04'0 0.0
2015-May-26 22:28N 38°41' W 009°04'0 0.0
2015-May-26 21:31N 38°41' W 009°04'2 1.9
2015-May-26 20:33N 38°41' W 009°06'1212.0
2015-May-26 19:33N 38°38' W 009°21'2 2.3
2015-May-26 18:31N 38°40' W 009°23'0 0.0
2015-May-26 17:31N 38°40' W 009°23'0 0.1
2015-May-26 16:25N 38°40' W 009°23'0 0.0
2015-May-26 15:31N 38°40' W 009°23'0 0.0
2015-May-26 14:28N 38°40' W 009°23'0 0.0
2015-May-26 13:28N 38°40' W 009°23'0 0.0
2015-May-26 12:28N 38°40' W 009°23'0 0.0
2015-May-26 11:31N 38°40' W 009°23'0 0.1
2015-May-26 10:31N 38°40' W 009°23'0 0.1
2015-May-26 09:31N 38°40' W 009°23'0 0.0
2015-May-26 08:31N 38°40' W 009°23'0 0.0
2015-May-26 07:31N 38°40' W 009°23'0 0.0
2015-May-26 06:28N 38°40' W 009°23'0 0.0
2015-May-26 05:31N 38°40' W 009°23'0 0.0
2015-May-26 04:31N 38°40' W 009°23'0 0.0
2015-May-26 03:31N 38°40' W 009°23'0 0.0
2015-May-26 02:31N 38°40' W 009°23'0 0.1
2015-May-26 01:31N 38°40' W 009°23'0 0.0
2015-May-26 00:25N 38°40' W 009°23'0 0.0
2015-May-25 23:25N 38°40' W 009°23'0 0.1
2015-May-25 22:28N 38°40' W 009°23'0 0.0
2015-May-25 21:31N 38°40' W 009°23'0 0.1
2015-May-25 20:28N 38°40' W 009°23'0 0.0
2015-May-25 19:25N 38°40' W 009°23'0 0.0
2015-May-25 18:25N 38°40' W 009°23'0 0.0
2015-May-25 17:31N 38°40' W 009°23'0 0.0
2015-May-25 16:31N 38°40' W 009°23'0 0.0
2015-May-25 15:31N 38°40' W 009°23'0 0.1
2015-May-25 14:31N 38°40' W 009°23'0 0.0
2015-May-25 13:28N 38°40' W 009°23'0 0.0
2015-May-25 11:19N 38°40' W 009°23'0 0.0
2015-May-25 10:07N 38°40' W 009°23'0 0.0
2015-May-25 09:28N 38°40' W 009°23'0 0.1
2015-May-25 08:31N 38°40' W 009°23'0 0.0
2015-May-25 07:28N 38°40' W 009°23'0 0.0
2015-May-25 06:31N 38°40' W 009°23'0 0.0
2015-May-25 05:28N 38°40' W 009°23'0 0.0
2015-May-25 04:28N 38°40' W 009°23'0 0.0
2015-May-25 03:28N 38°40' W 009°23'0 0.0
2015-May-25 02:31N 38°40' W 009°23'0 0.0
2015-May-25 01:22N 38°40' W 009°23'0 0.0
2015-May-25 00:16N 38°40' W 009°23'0 0.0
2015-May-24 23:04N 38°40' W 009°23'0 0.0
2015-May-24 22:22N 38°40' W 009°23'0 0.0
2015-May-24 21:28N 38°40' W 009°23'0 0.0
2015-May-24 20:28N 38°40' W 009°23'0 0.0
2015-May-24 19:31N 38°40' W 009°23'0 0.0
2015-May-24 18:31N 38°40' W 009°23'0 0.0
2015-May-24 17:28N 38°40' W 009°23'0 0.0
2015-May-24 16:31N 38°40' W 009°23'0 0.1
2015-May-24 15:07N 38°40' W 009°23'0 0.0
2015-May-24 14:25N 38°40' W 009°23'0 0.0
2015-May-24 13:31N 38°40' W 009°23'0 0.0
2015-May-24 12:28N 38°40' W 009°23'0 0.1
2015-May-24 11:31N 38°40' W 009°23'0 0.0
2015-May-24 10:22N 38°40' W 009°23'0 0.1
2015-May-24 09:28N 38°40' W 009°23'0 0.1
2015-May-24 08:13N 38°40' W 009°23'0 0.0
2015-May-24 07:04N 38°40' W 009°23'0 0.0
2015-May-24 06:25N 38°40' W 009°23'0 0.0
2015-May-24 05:31N 38°40' W 009°23'0 0.0
2015-May-24 04:31N 38°40' W 009°23'0 0.1
2015-May-24 03:25N 38°40' W 009°23'0 0.0
2015-May-24 02:31N 38°40' W 009°23'0 0.0
2015-May-24 01:31N 38°40' W 009°23'0 0.0
2015-May-24 00:31N 38°40' W 009°23'0 0.0
2015-May-23 23:31N 38°40' W 009°23'0 0.0
2015-May-23 22:31N 38°40' W 009°23'0 0.0
2015-May-23 21:31N 38°40' W 009°23'0 0.0
2015-May-23 20:31N 38°40' W 009°23'0 0.0
2015-May-23 19:31N 38°40' W 009°23'0 0.0
2015-May-23 18:22N 38°40' W 009°23'0 0.0
2015-May-23 17:28N 38°40' W 009°23'0 0.0
2015-May-23 16:31N 38°40' W 009°23'0 0.0
2015-May-23 15:31N 38°40' W 009°23'0 0.0
2015-May-23 14:31N 38°40' W 009°23'0 0.0
2015-May-23 13:16N 38°40' W 009°23'0 0.0
2015-May-23 12:16N 38°40' W 009°23'0 0.1
2015-May-23 11:07N 38°40' W 009°23'0 0.0
2015-May-23 10:16N 38°40' W 009°23'0 0.0
2015-May-23 08:28N 38°40' W 009°23'0 0.1
2015-May-23 07:31N 38°40' W 009°23'0 0.1
2015-May-23 05:31N 38°40' W 009°23'0 0.0
2015-May-23 04:22N 38°40' W 009°23'0 0.0
2015-May-23 03:31N 38°40' W 009°23'0 0.1
2015-May-23 02:25N 38°40' W 009°23'0 0.0
2015-May-23 01:28N 38°40' W 009°23'0 0.0
2015-May-23 00:28N 38°40' W 009°23'0 0.0
2015-May-22 22:31N 38°40' W 009°23'0 0.0
2015-May-22 21:13N 38°40' W 009°23'0 0.0
2015-May-22 20:22N 38°40' W 009°23'0 0.0
2015-May-22 19:25N 38°40' W 009°23'0 0.0
2015-May-22 18:28N 38°40' W 009°23'0 0.0
2015-May-22 17:31N 38°40' W 009°23'0 0.0
2015-May-22 16:31N 38°40' W 009°23'0 0.0
2015-May-22 15:31N 38°40' W 009°23'0 0.0
2015-May-22 14:13N 38°40' W 009°23'0 0.1
2015-May-22 13:28N 38°40' W 009°23'0 0.1
2015-May-22 12:04N 38°40' W 009°23'0 0.1
2015-May-22 11:04N 38°40' W 009°23'0 0.1
2015-May-22 10:28N 38°40' W 009°23'0 0.0
2015-May-22 09:19N 38°40' W 009°23'0 0.0
2015-May-22 08:31N 38°40' W 009°23'0 0.0
2015-May-22 07:31N 38°40' W 009°23'0 0.1
2015-May-22 06:31N 38°40' W 009°23'0 0.0
2015-May-22 05:22N 38°40' W 009°23'0 0.1
2015-May-22 04:31N 38°40' W 009°23'0 0.0
2015-May-22 03:31N 38°40' W 009°23'0 0.1
2015-May-22 02:22N 38°40' W 009°23'0 0.0
2015-May-22 01:28N 38°40' W 009°23'0 0.0
2015-May-22 00:28N 38°40' W 009°23'0 0.0
2015-May-21 23:25N 38°40' W 009°23'0 0.0
2015-May-21 22:25N 38°40' W 009°23'0 0.0
2015-May-21 21:25N 38°40' W 009°23'0 0.0
2015-May-21 20:16N 38°40' W 009°23'0 0.0
2015-May-21 19:28N 38°40' W 009°23'0 0.0
2015-May-21 18:28N 38°40' W 009°23'0 0.0
2015-May-21 17:31N 38°40' W 009°23'0 0.0
2015-May-21 16:25N 38°40' W 009°23'0 0.0
2015-May-21 15:31N 38°40' W 009°23'0 0.0
2015-May-21 14:31N 38°40' W 009°23'0 0.1
2015-May-21 13:13N 38°40' W 009°23'0 0.0
2015-May-21 12:31N 38°40' W 009°23'0 0.0
2015-May-21 11:13N 38°40' W 009°23'0 0.0
2015-May-21 10:22N 38°40' W 009°23'0 0.0
2015-May-21 09:25N 38°40' W 009°23'0 0.0
2015-May-21 08:31N 38°40' W 009°23'0 0.0
2015-May-21 07:31N 38°40' W 009°23'0 0.1
2015-May-21 06:22N 38°40' W 009°23'0 0.1
2015-May-21 05:31N 38°40' W 009°23'0 0.1
2015-May-21 04:31N 38°40' W 009°23'0 0.0
2015-May-21 03:31N 38°40' W 009°23'0 0.0
2015-May-21 02:25N 38°40' W 009°23'0 0.0
2015-May-21 01:28N 38°40' W 009°23'0 0.0
2015-May-21 00:31N 38°40' W 009°23'0 0.0
2015-May-20 23:28N 38°40' W 009°23'0 0.0
2015-May-20 22:31N 38°40' W 009°23'0 0.0
2015-May-20 21:19N 38°40' W 009°23'0 0.0
2015-May-20 20:28N 38°40' W 009°23'0 0.0
2015-May-20 19:22N 38°40' W 009°23'0 0.0
2015-May-20 18:31N 38°40' W 009°23'0 0.0
2015-May-20 17:31N 38°40' W 009°23'0 0.0
2015-May-20 16:31N 38°40' W 009°23'0 0.0
2015-May-20 15:28N 38°40' W 009°23'0 0.0
2015-May-20 14:28N 38°40' W 009°23'0 0.0
2015-May-20 13:28N 38°40' W 009°23'0 0.0
2015-May-20 12:31N 38°40' W 009°23'0 0.0
2015-May-20 11:28N 38°40' W 009°23'0 0.0
2015-May-20 10:31N 38°40' W 009°23'0 0.0
2015-May-20 09:19N 38°40' W 009°23'0 0.0
2015-May-20 08:31N 38°40' W 009°23'0 0.0
2015-May-20 07:28N 38°40' W 009°23'0 0.0
2015-May-20 06:31N 38°40' W 009°23'0 0.0
2015-May-20 05:31N 38°40' W 009°23'0 0.0
2015-May-20 04:28N 38°40' W 009°23'0 0.0
2015-May-20 03:31N 38°40' W 009°23'0 0.0
2015-May-20 02:28N 38°40' W 009°23'0 0.0
2015-May-20 01:28N 38°40' W 009°23'0 0.0
2015-May-20 00:28N 38°40' W 009°23'0 0.0
2015-May-19 23:28N 38°40' W 009°23'  
Track history (hours):
 
Tides and Currents Weather Stations Pressure Air Temp Water Temp Dewpoint Dewpoint Depression Visibility Wind Speed Wind Dir Waves Ship Positions

Queen Isabella

Last reported at 2015-May-29 23:25 UTC. Time now 2015-May-30 04:34 UTC.
Position N 36°06' W 001°51'.

Length 131 m; draft 6.3 m.

Type: Ship. MMSI: 636090959.

Date/timePositionNaut miles runAvg speedWind from/ knotsBaromVisibWave heightAir tempDewpointWater temp
2015-May-29 23:25N 36°06' W 001°51'1211.4
2015-May-29 22:20N 36°05' W 002°06'1111.0
2015-May-29 21:19N 36°04' W 002°20'911.1
2015-May-29 20:31N 36°04' W 002°31'13111.5
2015-May-29 09:05N 36°03' W 005°13'712.3
2015-May-29 08:33N 36°04' W 005°21'4 3.7
2015-May-29 07:33N 36°06' W 005°25'0 0.0
2015-May-29 06:32N 36°06' W 005°25'0 0.0
2015-May-29 05:29N 36°06' W 005°25'0 0.0
2015-May-29 04:29N 36°06' W 005°25'0 0.0
2015-May-29 03:14N 36°06' W 005°25'0 0.1
2015-May-29 02:32N 36°06' W 005°25'8 8.0
2015-May-29 01:34N 36°05' W 005°16'3 2.7
2015-May-29 00:34N 36°03' W 005°18'1111.3
2015-May-28 23:34N 35°57' W 005°30'15510.8
2015-May-28 09:13N 36°22' W 008°39'810.9
2015-May-28 08:27N 36°24' W 008°49'1011.0
2015-May-28 07:31N 36°26' W 009°01'1111.4
2015-May-28 06:31N 36°29' W 009°15'1111.1
2015-May-28 05:33N 36°35' W 009°26'1211.8
2015-May-28 04:33N 36°44' W 009°36'1212.0
2015-May-28 03:33N 36°55' W 009°40'1212.2
2015-May-28 02:33N 37°07' W 009°39'1211.7
2015-May-28 01:33N 37°19' W 009°37'1211.8
2015-May-28 00:33N 37°30' W 009°34'1211.8
2015-May-27 23:33N 37°42' W 009°32'1211.5
2015-May-27 22:33N 37°54' W 009°31'1211.9
2015-May-27 21:33N 38°05' W 009°30'1212.0
2015-May-27 20:33N 38°17' W 009°28'1212.0
2015-May-27 19:33N 38°29' W 009°26'10 9.6
2015-May-27 18:33N 38°38' W 009°21'1111.1
2015-May-27 17:34N 38°41' W 009°08'3 2.8
2015-May-27 16:25N 38°41' W 009°04'0 0.0
2015-May-27 15:31N 38°41' W 009°04'0 0.0
2015-May-27 14:31N 38°41' W 009°04'0 0.0
2015-May-27 13:28N 38°41' W 009°04'0 0.0
2015-May-27 12:31N 38°41' W 009°04'0 0.0
2015-May-27 11:25N 38°41' W 009°04'0 0.0
2015-May-27 10:31N 38°41' W 009°04'0 0.0
2015-May-27 09:31N 38°41' W 009°04'0 0.0
2015-May-27 08:31N 38°41' W 009°04'0 0.0
2015-May-27 07:31N 38°41' W 009°04'0 0.0
2015-May-27 06:31N 38°41' W 009°04'0 0.0
2015-May-27 05:31N 38°41' W 009°04'0 0.0
2015-May-27 04:31N 38°41' W 009°04'0 0.0
2015-May-27 03:31N 38°41' W 009°04'0 0.0
2015-May-27 02:31N 38°41' W 009°04'0 0.0
2015-May-27 01:31N 38°41' W 009°04'0 0.0
2015-May-27 00:31N 38°41' W 009°04'0 0.0
2015-May-26 23:31N 38°41' W 009°04'0 0.0
2015-May-26 22:28N 38°41' W 009°04'0 0.0
2015-May-26 21:31N 38°41' W 009°04'2 1.9
2015-May-26 20:33N 38°41' W 009°06'1212.0
2015-May-26 19:33N 38°38' W 009°21'2 2.3
2015-May-26 18:31N 38°40' W 009°23'0 0.0
2015-May-26 17:31N 38°40' W 009°23'0 0.1
2015-May-26 16:25N 38°40' W 009°23'0 0.0
2015-May-26 15:31N 38°40' W 009°23'0 0.0
2015-May-26 14:28N 38°40' W 009°23'0 0.0
2015-May-26 13:28N 38°40' W 009°23'0 0.0
2015-May-26 12:28N 38°40' W 009°23'0 0.0
2015-May-26 11:31N 38°40' W 009°23'0 0.1
2015-May-26 10:31N 38°40' W 009°23'0 0.1
2015-May-26 09:31N 38°40' W 009°23'0 0.0
2015-May-26 08:31N 38°40' W 009°23'0 0.0
2015-May-26 07:31N 38°40' W 009°23'0 0.0
2015-May-26 06:28N 38°40' W 009°23'0 0.0
2015-May-26 05:31N 38°40' W 009°23'0 0.0
2015-May-26 04:31N 38°40' W 009°23'0 0.0
2015-May-26 03:31N 38°40' W 009°23'0 0.0
2015-May-26 02:31N 38°40' W 009°23'0 0.1
2015-May-26 01:31N 38°40' W 009°23'0 0.0
2015-May-26 00:25N 38°40' W 009°23'0 0.0
2015-May-25 23:25N 38°40' W 009°23'0 0.1
2015-May-25 22:28N 38°40' W 009°23'0 0.0
2015-May-25 21:31N 38°40' W 009°23'0 0.1
2015-May-25 20:28N 38°40' W 009°23'0 0.0
2015-May-25 19:25N 38°40' W 009°23'0 0.0
2015-May-25 18:25N 38°40' W 009°23'0 0.0
2015-May-25 17:31N 38°40' W 009°23'0 0.0
2015-May-25 16:31N 38°40' W 009°23'0 0.0
2015-May-25 15:31N 38°40' W 009°23'0 0.1
2015-May-25 14:31N 38°40' W 009°23'0 0.0
2015-May-25 13:28N 38°40' W 009°23'0 0.0
2015-May-25 11:19N 38°40' W 009°23'0 0.0
2015-May-25 10:07N 38°40' W 009°23'0 0.0
2015-May-25 09:28N 38°40' W 009°23'0 0.1
2015-May-25 08:31N 38°40' W 009°23'0 0.0
2015-May-25 07:28N 38°40' W 009°23'0 0.0
2015-May-25 06:31N 38°40' W 009°23'0 0.0
2015-May-25 05:28N 38°40' W 009°23'0 0.0
2015-May-25 04:28N 38°40' W 009°23'0 0.0
2015-May-25 03:28N 38°40' W 009°23'0 0.0
2015-May-25 02:31N 38°40' W 009°23'0 0.0
2015-May-25 01:22N 38°40' W 009°23'0 0.0
2015-May-25 00:16N 38°40' W 009°23'0 0.0
2015-May-24 23:04N 38°40' W 009°23'0 0.0
2015-May-24 22:22N 38°40' W 009°23'0 0.0
2015-May-24 21:28N 38°40' W 009°23'0 0.0
2015-May-24 20:28N 38°40' W 009°23'0 0.0
2015-May-24 19:31N 38°40' W 009°23'0 0.0
2015-May-24 18:31N 38°40' W 009°23'0 0.0
2015-May-24 17:28N 38°40' W 009°23'0 0.0
2015-May-24 16:31N 38°40' W 009°23'0 0.1
2015-May-24 15:07N 38°40' W 009°23'0 0.0
2015-May-24 14:25N 38°40' W 009°23'0 0.0
2015-May-24 13:31N 38°40' W 009°23'0 0.0
2015-May-24 12:28N 38°40' W 009°23'0 0.1
2015-May-24 11:31N 38°40' W 009°23'0 0.0
2015-May-24 10:22N 38°40' W 009°23'0 0.1
2015-May-24 09:28N 38°40' W 009°23'0 0.1
2015-May-24 08:13N 38°40' W 009°23'0 0.0
2015-May-24 07:04N 38°40' W 009°23'0 0.0
2015-May-24 06:25N 38°40' W 009°23'0 0.0
2015-May-24 05:31N 38°40' W 009°23'0 0.0
2015-May-24 04:31N 38°40' W 009°23'0 0.1
2015-May-24 03:25N 38°40' W 009°23'0 0.0
2015-May-24 02:31N 38°40' W 009°23'0 0.0
2015-May-24 01:31N 38°40' W 009°23'0 0.0
2015-May-24 00:31N 38°40' W 009°23'0 0.0
2015-May-23 23:31N 38°40' W 009°23'0 0.0
2015-May-23 22:31N 38°40' W 009°23'0 0.0
2015-May-23 21:31N 38°40' W 009°23'0 0.0
2015-May-23 20:31N 38°40' W 009°23'0 0.0
2015-May-23 19:31N 38°40' W 009°23'0 0.0
2015-May-23 18:22N 38°40' W 009°23'0 0.0
2015-May-23 17:28N 38°40' W 009°23'0 0.0
2015-May-23 16:31N 38°40' W 009°23'0 0.0
2015-May-23 15:31N 38°40' W 009°23'0 0.0
2015-May-23 14:31N 38°40' W 009°23'0 0.0
2015-May-23 13:16N 38°40' W 009°23'0 0.0
2015-May-23 12:16N 38°40' W 009°23'0 0.1
2015-May-23 11:07N 38°40' W 009°23'0 0.0
2015-May-23 10:16N 38°40' W 009°23'0 0.0
2015-May-23 08:28N 38°40' W 009°23'0 0.1
2015-May-23 07:31N 38°40' W 009°23'0 0.1
2015-May-23 05:31N 38°40' W 009°23'0 0.0
2015-May-23 04:22N 38°40' W 009°23'0 0.0
2015-May-23 03:31N 38°40' W 009°23'0 0.1
2015-May-23 02:25N 38°40' W 009°23'0 0.0
2015-May-23 01:28N 38°40' W 009°23'0 0.0
2015-May-23 00:28N 38°40' W 009°23'0 0.0
2015-May-22 22:31N 38°40' W 009°23'0 0.0
2015-May-22 21:13N 38°40' W 009°23'0 0.0
2015-May-22 20:22N 38°40' W 009°23'0 0.0
2015-May-22 19:25N 38°40' W 009°23'0 0.0
2015-May-22 18:28N 38°40' W 009°23'0 0.0
2015-May-22 17:31N 38°40' W 009°23'0 0.0
2015-May-22 16:31N 38°40' W 009°23'0 0.0
2015-May-22 15:31N 38°40' W 009°23'0 0.0
2015-May-22 14:13N 38°40' W 009°23'0 0.1
2015-May-22 13:28N 38°40' W 009°23'0 0.1
2015-May-22 12:04N 38°40' W 009°23'0 0.1
2015-May-22 11:04N 38°40' W 009°23'0 0.1
2015-May-22 10:28N 38°40' W 009°23'0 0.0
2015-May-22 09:19N 38°40' W 009°23'0 0.0
2015-May-22 08:31N 38°40' W 009°23'0 0.0
2015-May-22 07:31N 38°40' W 009°23'0 0.1
2015-May-22 06:31N 38°40' W 009°23'0 0.0
2015-May-22 05:22N 38°40' W 009°23'0 0.1
2015-May-22 04:31N 38°40' W 009°23'0 0.0
2015-May-22 03:31N 38°40' W 009°23'0 0.1
2015-May-22 02:22N 38°40' W 009°23'0 0.0
2015-May-22 01:28N 38°40' W 009°23'0 0.0
2015-May-22 00:28N 38°40' W 009°23'0 0.0
2015-May-21 23:25N 38°40' W 009°23'0 0.0
2015-May-21 22:25N 38°40' W 009°23'0 0.0
2015-May-21 21:25N 38°40' W 009°23'0 0.0
2015-May-21 20:16N 38°40' W 009°23'0 0.0
2015-May-21 19:28N 38°40' W 009°23'0 0.0
2015-May-21 18:28N 38°40' W 009°23'0 0.0
2015-May-21 17:31N 38°40' W 009°23'0 0.0
2015-May-21 16:25N 38°40' W 009°23'0 0.0
2015-May-21 15:31N 38°40' W 009°23'0 0.0
2015-May-21 14:31N 38°40' W 009°23'0 0.1
2015-May-21 13:13N 38°40' W 009°23'0 0.0
2015-May-21 12:31N 38°40' W 009°23'0 0.0
2015-May-21 11:13N 38°40' W 009°23'0 0.0
2015-May-21 10:22N 38°40' W 009°23'0 0.0
2015-May-21 09:25N 38°40' W 009°23'0 0.0
2015-May-21 08:31N 38°40' W 009°23'0 0.0
2015-May-21 07:31N 38°40' W 009°23'0 0.1
2015-May-21 06:22N 38°40' W 009°23'0 0.1
2015-May-21 05:31N 38°40' W 009°23'0 0.1
2015-May-21 04:31N 38°40' W 009°23'0 0.0
2015-May-21 03:31N 38°40' W 009°23'0 0.0
2015-May-21 02:25N 38°40' W 009°23'0 0.0
2015-May-21 01:28N 38°40' W 009°23'0 0.0
2015-May-21 00:31N 38°40' W 009°23'0 0.0
2015-May-20 23:28N 38°40' W 009°23'0 0.0
2015-May-20 22:31N 38°40' W 009°23'0 0.0
2015-May-20 21:19N 38°40' W 009°23'0 0.0
2015-May-20 20:28N 38°40' W 009°23'0 0.0
2015-May-20 19:22N 38°40' W 009°23'0 0.0
2015-May-20 18:31N 38°40' W 009°23'0 0.0
2015-May-20 17:31N 38°40' W 009°23'0 0.0
2015-May-20 16:31N 38°40' W 009°23'0 0.0
2015-May-20 15:28N 38°40' W 009°23'0 0.0
2015-May-20 14:28N 38°40' W 009°23'0 0.0
2015-May-20 13:28N 38°40' W 009°23'0 0.0
2015-May-20 12:31N 38°40' W 009°23'0 0.0
2015-May-20 11:28N 38°40' W 009°23'0 0.0
2015-May-20 10:31N 38°40' W 009°23'0 0.0
2015-May-20 09:19N 38°40' W 009°23'0 0.0
2015-May-20 08:31N 38°40' W 009°23'0 0.0
2015-May-20 07:28N 38°40' W 009°23'0 0.0
2015-May-20 06:31N 38°40' W 009°23'0 0.0
2015-May-20 05:31N 38°40' W 009°23'0 0.0
2015-May-20 04:28N 38°40' W 009°23'0 0.0
2015-May-20 03:31N 38°40' W 009°23'0 0.0
2015-May-20 02:28N 38°40' W 009°23'0 0.0
2015-May-20 01:28N 38°40' W 009°23'0 0.0
2015-May-20 00:28N 38°40' W 009°23'0 0.0
2015-May-19 23:28N 38°40' W 009°23'  

Dump ship's entire track history